sensor_id;sensor_type;location;lat;lon;timestamp;temperature;humidity
37998;DHT22;24079;51.824;4.682;2023-10-31T00:00:27;11.30;99.90
37998;DHT22;24079;51.824;4.682;2023-10-31T00:02:54;11.20;99.90
37998;DHT22;24079;51.824;4.682;2023-10-31T00:05:20;11.20;99.90
37998;DHT22;24079;51.824;4.682;2023-10-31T00:07:45;11.20;99.90
37998;DHT22;24079;51.824;4.682;2023-10-31T00:10:11;11.20;99.90
37998;DHT22;24079;51.824;4.682;2023-10-31T00:12:37;11.20;99.90
37998;DHT22;24079;51.824;4.682;2023-10-31T00:15:04;11.20;99.90
37998;DHT22;24079;51.824;4.682;2023-10-31T00:17:30;11.20;99.90
37998;DHT22;24079;51.824;4.682;2023-10-31T00:19:55;11.30;99.90
37998;DHT22;24079;51.824;4.682;2023-10-31T00:22:21;11.30;99.90
37998;DHT22;24079;51.824;4.682;2023-10-31T00:24:48;11.30;99.90
37998;DHT22;24079;51.824;4.682;2023-10-31T00:27:16;11.30;99.90
37998;DHT22;24079;51.824;4.682;2023-10-31T00:29:42;11.30;99.90
37998;DHT22;24079;51.824;4.682;2023-10-31T00:32:08;11.30;99.90
37998;DHT22;24079;51.824;4.682;2023-10-31T00:34:33;11.30;99.90
37998;DHT22;24079;51.824;4.682;2023-10-31T00:36:59;11.30;99.90
37998;DHT22;24079;51.824;4.682;2023-10-31T00:39:25;11.30;99.90
37998;DHT22;24079;51.824;4.682;2023-10-31T00:41:51;11.40;99.90
37998;DHT22;24079;51.824;4.682;2023-10-31T00:44:17;11.40;99.90
37998;DHT22;24079;51.824;4.682;2023-10-31T00:46:43;11.40;99.90
37998;DHT22;24079;51.824;4.682;2023-10-31T00:49:09;11.50;99.90
37998;DHT22;24079;51.824;4.682;2023-10-31T00:51:35;11.40;99.90
37998;DHT22;24079;51.824;4.682;2023-10-31T00:54:01;11.40;99.90
37998;DHT22;24079;51.824;4.682;2023-10-31T00:56:27;11.50;99.90
37998;DHT22;24079;51.824;4.682;2023-10-31T00:58:53;11.40;99.90
37998;DHT22;24079;51.824;4.682;2023-10-31T01:01:19;11.40;99.90
37998;DHT22;24079;51.824;4.682;2023-10-31T01:03:45;11.40;99.90
37998;DHT22;24079;51.824;4.682;2023-10-31T01:06:11;11.50;99.90
37998;DHT22;24079;51.824;4.682;2023-10-31T01:08:37;11.50;99.90
37998;DHT22;24079;51.824;4.682;2023-10-31T01:11:03;11.50;99.90
37998;DHT22;24079;51.824;4.682;2023-10-31T01:13:29;11.50;99.90
37998;DHT22;24079;51.824;4.682;2023-10-31T01:15:56;11.50;99.90
37998;DHT22;24079;51.824;4.682;2023-10-31T01:18:22;11.50;99.90
37998;DHT22;24079;51.824;4.682;2023-10-31T01:20:48;11.50;99.90
37998;DHT22;24079;51.824;4.682;2023-10-31T01:23:14;11.40;99.90
37998;DHT22;24079;51.824;4.682;2023-10-31T01:25:40;11.40;99.90
37998;DHT22;24079;51.824;4.682;2023-10-31T01:28:06;11.40;99.90
37998;DHT22;24079;51.824;4.682;2023-10-31T01:30:32;11.40;99.90
37998;DHT22;24079;51.824;4.682;2023-10-31T01:32:58;11.50;99.90
37998;DHT22;24079;51.824;4.682;2023-10-31T01:35:24;11.50;99.90
37998;DHT22;24079;51.824;4.682;2023-10-31T01:37:49;11.40;99.90
37998;DHT22;24079;51.824;4.682;2023-10-31T01:40:15;11.50;99.90
37998;DHT22;24079;51.824;4.682;2023-10-31T01:42:41;11.50;99.90
37998;DHT22;24079;51.824;4.682;2023-10-31T01:45:07;11.40;99.90
37998;DHT22;24079;51.824;4.682;2023-10-31T01:47:33;11.40;99.90
37998;DHT22;24079;51.824;4.682;2023-10-31T01:49:59;11.50;99.90
37998;DHT22;24079;51.824;4.682;2023-10-31T01:52:25;11.50;99.90
37998;DHT22;24079;51.824;4.682;2023-10-31T01:54:51;11.50;99.90
37998;DHT22;24079;51.824;4.682;2023-10-31T01:57:18;11.50;99.90
37998;DHT22;24079;51.824;4.682;2023-10-31T01:59:45;11.50;99.90
37998;DHT22;24079;51.824;4.682;2023-10-31T02:02:11;11.40;99.90
37998;DHT22;24079;51.824;4.682;2023-10-31T02:04:37;11.40;99.90
37998;DHT22;24079;51.824;4.682;2023-10-31T02:07:03;11.40;99.90
37998;DHT22;24079;51.824;4.682;2023-10-31T02:09:29;11.40;99.90
37998;DHT22;24079;51.824;4.682;2023-10-31T02:11:56;11.30;99.90
37998;DHT22;24079;51.824;4.682;2023-10-31T02:14:23;11.30;99.90
37998;DHT22;24079;51.824;4.682;2023-10-31T02:16:49;11.20;99.90
37998;DHT22;24079;51.824;4.682;2023-10-31T02:19:19;11.20;99.90
37998;DHT22;24079;51.824;4.682;2023-10-31T02:21:46;11.30;99.90
37998;DHT22;24079;51.824;4.682;2023-10-31T02:24:12;11.30;99.90
37998;DHT22;24079;51.824;4.682;2023-10-31T02:26:38;11.30;99.90
37998;DHT22;24079;51.824;4.682;2023-10-31T02:29:04;11.30;99.90
37998;DHT22;24079;51.824;4.682;2023-10-31T02:31:31;11.10;99.90
37998;DHT22;24079;51.824;4.682;2023-10-31T02:33:57;11.10;99.90
37998;DHT22;24079;51.824;4.682;2023-10-31T02:36:23;11.10;99.90
37998;DHT22;24079;51.824;4.682;2023-10-31T02:38:49;11.10;99.90
37998;DHT22;24079;51.824;4.682;2023-10-31T02:41:15;11.10;99.90
37998;DHT22;24079;51.824;4.682;2023-10-31T02:43:41;11.10;99.90
37998;DHT22;24079;51.824;4.682;2023-10-31T02:46:07;11.10;99.90
37998;DHT22;24079;51.824;4.682;2023-10-31T02:48:34;11.10;99.90
37998;DHT22;24079;51.824;4.682;2023-10-31T02:51:05;11.10;99.90
37998;DHT22;24079;51.824;4.682;2023-10-31T02:53:33;11.10;99.90
37998;DHT22;24079;51.824;4.682;2023-10-31T02:55:59;11.10;99.90
37998;DHT22;24079;51.824;4.682;2023-10-31T02:58:25;11.10;99.90
37998;DHT22;24079;51.824;4.682;2023-10-31T03:00:51;11.00;99.90
37998;DHT22;24079;51.824;4.682;2023-10-31T03:03:17;11.00;99.90
37998;DHT22;24079;51.824;4.682;2023-10-31T03:05:43;11.10;99.90
37998;DHT22;24079;51.824;4.682;2023-10-31T03:08:09;11.10;99.90
37998;DHT22;24079;51.824;4.682;2023-10-31T03:10:38;11.10;99.90
37998;DHT22;24079;51.824;4.682;2023-10-31T03:13:04;11.20;99.90
37998;DHT22;24079;51.824;4.682;2023-10-31T03:15:30;11.20;99.90
37998;DHT22;24079;51.824;4.682;2023-10-31T03:17:56;11.30;99.90
37998;DHT22;24079;51.824;4.682;2023-10-31T03:20:22;11.20;99.90
37998;DHT22;24079;51.824;4.682;2023-10-31T03:22:48;11.30;99.90
37998;DHT22;24079;51.824;4.682;2023-10-31T03:25:14;11.20;99.90
37998;DHT22;24079;51.824;4.682;2023-10-31T03:27:41;11.30;99.90
37998;DHT22;24079;51.824;4.682;2023-10-31T03:30:07;11.20;99.90
37998;DHT22;24079;51.824;4.682;2023-10-31T03:32:33;11.20;99.90
37998;DHT22;24079;51.824;4.682;2023-10-31T03:34:59;11.20;99.90
37998;DHT22;24079;51.824;4.682;2023-10-31T03:37:25;11.10;99.90
37998;DHT22;24079;51.824;4.682;2023-10-31T03:39:51;11.20;99.90
37998;DHT22;24079;51.824;4.682;2023-10-31T03:42:17;11.10;99.90
37998;DHT22;24079;51.824;4.682;2023-10-31T03:44:42;11.20;99.90
37998;DHT22;24079;51.824;4.682;2023-10-31T03:47:08;11.10;99.90
37998;DHT22;24079;51.824;4.682;2023-10-31T03:49:34;11.10;99.90
37998;DHT22;24079;51.824;4.682;2023-10-31T03:52:03;11.20;99.90
37998;DHT22;24079;51.824;4.682;2023-10-31T03:54:29;11.10;99.90
37998;DHT22;24079;51.824;4.682;2023-10-31T03:56:55;11.20;99.90
37998;DHT22;24079;51.824;4.682;2023-10-31T03:59:21;11.20;99.90
37998;DHT22;24079;51.824;4.682;2023-10-31T04:01:47;11.10;99.90
37998;DHT22;24079;51.824;4.682;2023-10-31T04:04:13;11.10;99.90
37998;DHT22;24079;51.824;4.682;2023-10-31T04:06:39;11.10;99.90
37998;DHT22;24079;51.824;4.682;2023-10-31T04:09:06;11.00;99.90
37998;DHT22;24079;51.824;4.682;2023-10-31T04:11:32;11.00;99.90
37998;DHT22;24079;51.824;4.682;2023-10-31T04:13:58;11.00;99.90
37998;DHT22;24079;51.824;4.682;2023-10-31T04:16:25;11.10;99.90
37998;DHT22;24079;51.824;4.682;2023-10-31T04:18:51;11.00;99.90
37998;DHT22;24079;51.824;4.682;2023-10-31T04:21:17;11.10;99.90
37998;DHT22;24079;51.824;4.682;2023-10-31T04:23:43;11.10;99.90
37998;DHT22;24079;51.824;4.682;2023-10-31T04:26:09;11.00;99.90
37998;DHT22;24079;51.824;4.682;2023-10-31T04:28:35;11.10;99.90
37998;DHT22;24079;51.824;4.682;2023-10-31T04:31:01;11.10;99.90
37998;DHT22;24079;51.824;4.682;2023-10-31T04:33:27;11.20;99.90
37998;DHT22;24079;51.824;4.682;2023-10-31T04:35:53;11.10;99.90
37998;DHT22;24079;51.824;4.682;2023-10-31T04:38:19;11.20;99.90
37998;DHT22;24079;51.824;4.682;2023-10-31T04:40:45;11.20;99.90
37998;DHT22;24079;51.824;4.682;2023-10-31T04:43:12;11.10;99.90
37998;DHT22;24079;51.824;4.682;2023-10-31T04:45:38;11.10;99.90
37998;DHT22;24079;51.824;4.682;2023-10-31T04:48:04;11.00;99.90
37998;DHT22;24079;51.824;4.682;2023-10-31T04:50:30;11.00;99.90
37998;DHT22;24079;51.824;4.682;2023-10-31T04:52:56;11.00;99.90
37998;DHT22;24079;51.824;4.682;2023-10-31T04:55:22;11.00;99.90
37998;DHT22;24079;51.824;4.682;2023-10-31T04:57:48;11.00;99.90
37998;DHT22;24079;51.824;4.682;2023-10-31T05:00:14;11.00;99.90
37998;DHT22;24079;51.824;4.682;2023-10-31T05:02:39;10.90;99.90
37998;DHT22;24079;51.824;4.682;2023-10-31T05:05:06;11.00;99.90
37998;DHT22;24079;51.824;4.682;2023-10-31T05:07:32;11.00;99.90
37998;DHT22;24079;51.824;4.682;2023-10-31T05:09:58;11.00;99.90
37998;DHT22;24079;51.824;4.682;2023-10-31T05:12:25;11.00;99.90
37998;DHT22;24079;51.824;4.682;2023-10-31T05:14:51;11.00;99.90
37998;DHT22;24079;51.824;4.682;2023-10-31T05:17:17;11.00;99.90
37998;DHT22;24079;51.824;4.682;2023-10-31T05:19:43;11.10;99.90
37998;DHT22;24079;51.824;4.682;2023-10-31T05:22:09;11.10;99.90
37998;DHT22;24079;51.824;4.682;2023-10-31T05:24:35;11.00;99.90
37998;DHT22;24079;51.824;4.682;2023-10-31T05:27:03;11.00;99.90
37998;DHT22;24079;51.824;4.682;2023-10-31T05:29:29;11.10;99.90
37998;DHT22;24079;51.824;4.682;2023-10-31T05:31:56;11.00;99.90
37998;DHT22;24079;51.824;4.682;2023-10-31T05:34:22;11.00;99.90
37998;DHT22;24079;51.824;4.682;2023-10-31T05:36:48;11.00;99.90
37998;DHT22;24079;51.824;4.682;2023-10-31T05:39:14;10.90;99.90
37998;DHT22;24079;51.824;4.682;2023-10-31T05:41:41;11.00;99.90
37998;DHT22;24079;51.824;4.682;2023-10-31T05:44:07;10.90;99.90
37998;DHT22;24079;51.824;4.682;2023-10-31T05:46:38;10.90;99.90
37998;DHT22;24079;51.824;4.682;2023-10-31T05:49:08;11.00;99.90
37998;DHT22;24079;51.824;4.682;2023-10-31T05:51:36;11.00;99.90
37998;DHT22;24079;51.824;4.682;2023-10-31T05:54:02;10.90;99.90
37998;DHT22;24079;51.824;4.682;2023-10-31T05:56:29;10.90;99.90
37998;DHT22;24079;51.824;4.682;2023-10-31T05:58:55;10.90;99.90
37998;DHT22;24079;51.824;4.682;2023-10-31T06:01:21;10.90;99.90
37998;DHT22;24079;51.824;4.682;2023-10-31T06:03:47;10.90;99.90
37998;DHT22;24079;51.824;4.682;2023-10-31T06:06:13;11.00;99.90
37998;DHT22;24079;51.824;4.682;2023-10-31T06:08:40;10.90;99.90
37998;DHT22;24079;51.824;4.682;2023-10-31T06:11:06;11.00;99.90
37998;DHT22;24079;51.824;4.682;2023-10-31T06:13:33;11.00;99.90
37998;DHT22;24079;51.824;4.682;2023-10-31T06:16:00;10.90;99.90
37998;DHT22;24079;51.824;4.682;2023-10-31T06:18:27;11.00;99.90
37998;DHT22;24079;51.824;4.682;2023-10-31T06:20:53;10.90;99.90
37998;DHT22;24079;51.824;4.682;2023-10-31T06:23:19;10.90;99.90
37998;DHT22;24079;51.824;4.682;2023-10-31T06:25:45;10.90;99.90
37998;DHT22;24079;51.824;4.682;2023-10-31T06:28:11;10.90;99.90
37998;DHT22;24079;51.824;4.682;2023-10-31T06:30:37;10.80;99.90
37998;DHT22;24079;51.824;4.682;2023-10-31T06:33:03;10.90;99.90
37998;DHT22;24079;51.824;4.682;2023-10-31T06:35:29;10.90;99.90
37998;DHT22;24079;51.824;4.682;2023-10-31T06:37:56;10.90;99.90
37998;DHT22;24079;51.824;4.682;2023-10-31T06:40:25;10.90;99.90
37998;DHT22;24079;51.824;4.682;2023-10-31T06:42:52;10.90;99.90
37998;DHT22;24079;51.824;4.682;2023-10-31T06:45:18;10.90;99.90
37998;DHT22;24079;51.824;4.682;2023-10-31T06:47:44;10.90;99.90
37998;DHT22;24079;51.824;4.682;2023-10-31T06:50:09;10.90;99.90
37998;DHT22;24079;51.824;4.682;2023-10-31T06:52:35;10.90;99.90
37998;DHT22;24079;51.824;4.682;2023-10-31T06:55:02;10.90;99.90
37998;DHT22;24079;51.824;4.682;2023-10-31T06:57:28;10.90;99.90
37998;DHT22;24079;51.824;4.682;2023-10-31T06:59:54;11.00;99.90
37998;DHT22;24079;51.824;4.682;2023-10-31T07:02:21;11.00;99.90
37998;DHT22;24079;51.824;4.682;2023-10-31T07:04:46;11.00;99.90
37998;DHT22;24079;51.824;4.682;2023-10-31T07:07:12;11.00;99.90
37998;DHT22;24079;51.824;4.682;2023-10-31T07:09:38;11.00;99.90
37998;DHT22;24079;51.824;4.682;2023-10-31T07:12:05;11.00;99.90
37998;DHT22;24079;51.824;4.682;2023-10-31T07:14:31;11.00;99.90
37998;DHT22;24079;51.824;4.682;2023-10-31T07:16:57;11.00;99.90
37998;DHT22;24079;51.824;4.682;2023-10-31T07:19:23;11.00;99.90
37998;DHT22;24079;51.824;4.682;2023-10-31T07:21:50;11.00;99.90
37998;DHT22;24079;51.824;4.682;2023-10-31T07:24:16;11.10;99.90
37998;DHT22;24079;51.824;4.682;2023-10-31T07:26:41;11.00;99.90
37998;DHT22;24079;51.824;4.682;2023-10-31T07:29:07;11.00;99.90
37998;DHT22;24079;51.824;4.682;2023-10-31T07:31:34;11.10;99.90
37998;DHT22;24079;51.824;4.682;2023-10-31T07:34:05;11.10;99.90
37998;DHT22;24079;51.824;4.682;2023-10-31T07:36:31;11.20;99.90
37998;DHT22;24079;51.824;4.682;2023-10-31T07:39:05;11.30;99.90
37998;DHT22;24079;51.824;4.682;2023-10-31T07:41:31;11.40;99.90
37998;DHT22;24079;51.824;4.682;2023-10-31T07:43:57;11.50;99.90
37998;DHT22;24079;51.824;4.682;2023-10-31T07:46:23;11.60;99.90
37998;DHT22;24079;51.824;4.682;2023-10-31T07:48:49;11.70;99.90
37998;DHT22;24079;51.824;4.682;2023-10-31T07:51:15;11.80;99.90
37998;DHT22;24079;51.824;4.682;2023-10-31T07:53:41;11.80;99.90
37998;DHT22;24079;51.824;4.682;2023-10-31T07:56:17;11.80;99.90
37998;DHT22;24079;51.824;4.682;2023-10-31T07:58:44;11.80;99.90
37998;DHT22;24079;51.824;4.682;2023-10-31T08:01:10;11.80;99.90
37998;DHT22;24079;51.824;4.682;2023-10-31T08:03:37;11.90;99.90
37998;DHT22;24079;51.824;4.682;2023-10-31T08:06:05;12.10;99.90
37998;DHT22;24079;51.824;4.682;2023-10-31T08:08:32;12.10;99.90
37998;DHT22;24079;51.824;4.682;2023-10-31T08:10:59;12.10;99.90
37998;DHT22;24079;51.824;4.682;2023-10-31T08:13:25;12.20;99.90
37998;DHT22;24079;51.824;4.682;2023-10-31T08:15:52;12.30;99.90
37998;DHT22;24079;51.824;4.682;2023-10-31T08:18:19;12.20;99.90
37998;DHT22;24079;51.824;4.682;2023-10-31T08:20:45;12.20;99.90
37998;DHT22;24079;51.824;4.682;2023-10-31T08:23:14;12.30;99.90
37998;DHT22;24079;51.824;4.682;2023-10-31T08:25:41;12.20;99.90
37998;DHT22;24079;51.824;4.682;2023-10-31T08:28:07;12.20;99.90
37998;DHT22;24079;51.824;4.682;2023-10-31T08:30:33;12.20;99.90
37998;DHT22;24079;51.824;4.682;2023-10-31T08:33:01;12.20;99.90
37998;DHT22;24079;51.824;4.682;2023-10-31T08:35:27;12.20;99.90
37998;DHT22;24079;51.824;4.682;2023-10-31T13:06:16;13.10;99.90
37998;DHT22;24079;51.824;4.682;2023-10-31T13:08:45;13.10;99.90
37998;DHT22;24079;51.824;4.682;2023-10-31T13:11:13;13.00;99.90
37998;DHT22;24079;51.824;4.682;2023-10-31T13:13:39;13.00;99.90
37998;DHT22;24079;51.824;4.682;2023-10-31T13:16:06;13.00;99.90
37998;DHT22;24079;51.824;4.682;2023-10-31T13:18:32;13.00;99.90
37998;DHT22;24079;51.824;4.682;2023-10-31T13:20:57;13.00;99.90
37998;DHT22;24079;51.824;4.682;2023-10-31T13:23:23;13.00;99.90
37998;DHT22;24079;51.824;4.682;2023-10-31T13:25:49;13.10;99.90
37998;DHT22;24079;51.824;4.682;2023-10-31T13:28:16;13.10;99.90
37998;DHT22;24079;51.824;4.682;2023-10-31T13:30:42;13.00;99.90
37998;DHT22;24079;51.824;4.682;2023-10-31T13:33:08;13.00;99.90
37998;DHT22;24079;51.824;4.682;2023-10-31T13:35:34;13.00;99.90
37998;DHT22;24079;51.824;4.682;2023-10-31T13:38:00;13.00;99.90
37998;DHT22;24079;51.824;4.682;2023-10-31T13:40:26;13.00;99.90
37998;DHT22;24079;51.824;4.682;2023-10-31T13:42:52;13.00;99.90
37998;DHT22;24079;51.824;4.682;2023-10-31T13:45:19;12.90;99.90
37998;DHT22;24079;51.824;4.682;2023-10-31T13:47:45;12.90;99.90
37998;DHT22;24079;51.824;4.682;2023-10-31T13:50:11;12.90;99.90
37998;DHT22;24079;51.824;4.682;2023-10-31T13:52:37;12.80;99.90
37998;DHT22;24079;51.824;4.682;2023-10-31T13:55:05;12.80;99.90
37998;DHT22;24079;51.824;4.682;2023-10-31T13:57:31;12.80;99.90
37998;DHT22;24079;51.824;4.682;2023-10-31T13:59:56;12.70;99.90
37998;DHT22;24079;51.824;4.682;2023-10-31T14:02:25;12.60;99.90
37998;DHT22;24079;51.824;4.682;2023-10-31T14:04:51;12.50;99.90
37998;DHT22;24079;51.824;4.682;2023-10-31T14:07:26;12.50;99.90
37998;DHT22;24079;51.824;4.682;2023-10-31T14:09:53;12.40;99.90
37998;DHT22;24079;51.824;4.682;2023-10-31T14:12:19;12.50;99.90
37998;DHT22;24079;51.824;4.682;2023-10-31T14:14:45;12.40;99.90
37998;DHT22;24079;51.824;4.682;2023-10-31T14:17:14;12.50;99.90
37998;DHT22;24079;51.824;4.682;2023-10-31T14:19:43;12.30;99.90
37998;DHT22;24079;51.824;4.682;2023-10-31T14:22:09;12.30;99.90
37998;DHT22;24079;51.824;4.682;2023-10-31T14:24:35;12.30;99.90
37998;DHT22;24079;51.824;4.682;2023-10-31T14:27:01;12.30;99.90
37998;DHT22;24079;51.824;4.682;2023-10-31T14:29:27;12.20;99.90
37998;DHT22;24079;51.824;4.682;2023-10-31T14:31:53;12.20;99.90
37998;DHT22;24079;51.824;4.682;2023-10-31T14:34:20;12.20;99.90
37998;DHT22;24079;51.824;4.682;2023-10-31T14:36:47;12.20;99.90
37998;DHT22;24079;51.824;4.682;2023-10-31T14:39:13;12.20;99.90
37998;DHT22;24079;51.824;4.682;2023-10-31T14:41:39;12.10;99.90
37998;DHT22;24079;51.824;4.682;2023-10-31T14:44:06;12.10;99.90
37998;DHT22;24079;51.824;4.682;2023-10-31T14:46:32;12.10;99.90
37998;DHT22;24079;51.824;4.682;2023-10-31T14:48:58;12.10;99.90
37998;DHT22;24079;51.824;4.682;2023-10-31T14:51:24;12.20;99.90
37998;DHT22;24079;51.824;4.682;2023-10-31T14:53:50;12.20;99.90
37998;DHT22;24079;51.824;4.682;2023-10-31T14:56:16;12.20;99.90
37998;DHT22;24079;51.824;4.682;2023-10-31T14:58:43;12.30;99.90
37998;DHT22;24079;51.824;4.682;2023-10-31T15:01:09;12.30;99.90
37998;DHT22;24079;51.824;4.682;2023-10-31T15:03:35;12.40;99.90
37998;DHT22;24079;51.824;4.682;2023-10-31T15:06:01;12.40;99.90
37998;DHT22;24079;51.824;4.682;2023-10-31T15:08:28;12.40;99.90
37998;DHT22;24079;51.824;4.682;2023-10-31T15:10:54;12.50;99.90
37998;DHT22;24079;51.824;4.682;2023-10-31T15:13:22;12.50;99.90
37998;DHT22;24079;51.824;4.682;2023-10-31T15:15:48;12.60;99.90
37998;DHT22;24079;51.824;4.682;2023-10-31T15:18:14;12.60;99.90
37998;DHT22;24079;51.824;4.682;2023-10-31T15:20:40;12.50;99.90
37998;DHT22;24079;51.824;4.682;2023-10-31T15:23:06;12.50;99.90
37998;DHT22;24079;51.824;4.682;2023-10-31T15:25:33;12.50;99.90
37998;DHT22;24079;51.824;4.682;2023-10-31T15:27:59;12.50;99.90
37998;DHT22;24079;51.824;4.682;2023-10-31T16:27:27;12.30;99.90
37998;DHT22;24079;51.824;4.682;2023-10-31T16:29:53;12.30;99.90
37998;DHT22;24079;51.824;4.682;2023-10-31T16:32:18;12.30;99.90
37998;DHT22;24079;51.824;4.682;2023-10-31T16:34:44;12.30;99.90
37998;DHT22;24079;51.824;4.682;2023-10-31T16:37:12;12.30;99.90
37998;DHT22;24079;51.824;4.682;2023-10-31T16:39:37;12.30;99.90
37998;DHT22;24079;51.824;4.682;2023-10-31T16:42:03;12.40;99.90
37998;DHT22;24079;51.824;4.682;2023-10-31T16:44:29;12.40;99.90
37998;DHT22;24079;51.824;4.682;2023-10-31T16:46:55;12.40;99.90
37998;DHT22;24079;51.824;4.682;2023-10-31T16:49:23;12.50;99.90
37998;DHT22;24079;51.824;4.682;2023-10-31T16:51:50;12.40;99.90
37998;DHT22;24079;51.824;4.682;2023-10-31T16:54:16;12.30;99.90
37998;DHT22;24079;51.824;4.682;2023-10-31T16:56:42;12.30;99.90
37998;DHT22;24079;51.824;4.682;2023-10-31T16:59:08;12.40;99.90
37998;DHT22;24079;51.824;4.682;2023-10-31T17:01:34;12.50;99.90
37998;DHT22;24079;51.824;4.682;2023-10-31T17:04:01;12.50;99.90
37998;DHT22;24079;51.824;4.682;2023-10-31T17:06:27;12.50;99.90
37998;DHT22;24079;51.824;4.682;2023-10-31T17:08:53;12.60;99.90
37998;DHT22;24079;51.824;4.682;2023-10-31T17:11:19;12.60;99.90
37998;DHT22;24079;51.824;4.682;2023-10-31T17:13:45;12.70;99.90
37998;DHT22;24079;51.824;4.682;2023-10-31T17:16:11;12.70;99.90
37998;DHT22;24079;51.824;4.682;2023-10-31T17:18:37;12.60;99.90
37998;DHT22;24079;51.824;4.682;2023-10-31T17:21:04;12.80;99.90
37998;DHT22;24079;51.824;4.682;2023-10-31T17:23:30;12.80;99.90
37998;DHT22;24079;51.824;4.682;2023-10-31T17:25:56;12.80;99.90
37998;DHT22;24079;51.824;4.682;2023-10-31T17:28:22;12.90;99.90
37998;DHT22;24079;51.824;4.682;2023-10-31T17:30:48;12.90;99.90
37998;DHT22;24079;51.824;4.682;2023-10-31T17:33:14;12.90;99.90
37998;DHT22;24079;51.824;4.682;2023-10-31T17:35:40;12.70;99.90
37998;DHT22;24079;51.824;4.682;2023-10-31T17:38:06;12.70;99.90
37998;DHT22;24079;51.824;4.682;2023-10-31T17:43:04;12.50;99.90
37998;DHT22;24079;51.824;4.682;2023-10-31T17:45:31;12.50;99.90
37998;DHT22;24079;51.824;4.682;2023-10-31T17:47:57;12.40;99.90
37998;DHT22;24079;51.824;4.682;2023-10-31T17:50:24;12.30;99.90
37998;DHT22;24079;51.824;4.682;2023-10-31T17:52:50;12.30;99.90
37998;DHT22;24079;51.824;4.682;2023-10-31T17:55:16;12.30;99.90
37998;DHT22;24079;51.824;4.682;2023-10-31T17:57:45;12.30;99.90
37998;DHT22;24079;51.824;4.682;2023-10-31T18:00:11;12.20;99.90
37998;DHT22;24079;51.824;4.682;2023-10-31T18:02:37;12.20;99.90
37998;DHT22;24079;51.824;4.682;2023-10-31T18:05:03;12.20;99.90
37998;DHT22;24079;51.824;4.682;2023-10-31T18:07:29;12.30;99.90
37998;DHT22;24079;51.824;4.682;2023-10-31T18:09:55;12.20;99.90
37998;DHT22;24079;51.824;4.682;2023-10-31T18:12:22;12.20;99.90
37998;DHT22;24079;51.824;4.682;2023-10-31T18:14:48;12.30;99.90
37998;DHT22;24079;51.824;4.682;2023-10-31T18:17:14;12.30;99.90
37998;DHT22;24079;51.824;4.682;2023-10-31T18:19:40;12.20;99.90
37998;DHT22;24079;51.824;4.682;2023-10-31T18:22:06;12.20;99.90
37998;DHT22;24079;51.824;4.682;2023-10-31T18:24:32;12.20;99.90
37998;DHT22;24079;51.824;4.682;2023-10-31T18:26:58;12.20;99.90
37998;DHT22;24079;51.824;4.682;2023-10-31T18:29:25;12.20;99.90
37998;DHT22;24079;51.824;4.682;2023-10-31T18:31:51;12.20;99.90
37998;DHT22;24079;51.824;4.682;2023-10-31T18:34:17;12.20;99.90
37998;DHT22;24079;51.824;4.682;2023-10-31T18:36:43;12.20;99.90
37998;DHT22;24079;51.824;4.682;2023-10-31T18:39:09;12.20;99.90
37998;DHT22;24079;51.824;4.682;2023-10-31T18:41:36;12.20;99.90
37998;DHT22;24079;51.824;4.682;2023-10-31T18:44:05;12.20;99.90
37998;DHT22;24079;51.824;4.682;2023-10-31T18:46:31;12.20;99.90
37998;DHT22;24079;51.824;4.682;2023-10-31T18:48:57;12.20;99.90
37998;DHT22;24079;51.824;4.682;2023-10-31T18:51:23;12.20;99.90
37998;DHT22;24079;51.824;4.682;2023-10-31T18:53:49;12.20;99.90
37998;DHT22;24079;51.824;4.682;2023-10-31T18:56:15;12.20;99.90
37998;DHT22;24079;51.824;4.682;2023-10-31T18:58:41;12.20;99.90
37998;DHT22;24079;51.824;4.682;2023-10-31T19:01:07;12.20;99.90
37998;DHT22;24079;51.824;4.682;2023-10-31T19:03:33;12.20;99.90
37998;DHT22;24079;51.824;4.682;2023-10-31T19:06:00;12.30;99.90
37998;DHT22;24079;51.824;4.682;2023-10-31T19:08:26;12.20;99.90
37998;DHT22;24079;51.824;4.682;2023-10-31T19:10:55;12.30;99.90
37998;DHT22;24079;51.824;4.682;2023-10-31T19:13:21;12.30;99.90
37998;DHT22;24079;51.824;4.682;2023-10-31T19:15:48;12.30;99.90
37998;DHT22;24079;51.824;4.682;2023-10-31T19:18:14;12.30;99.90
37998;DHT22;24079;51.824;4.682;2023-10-31T19:20:40;12.30;99.90
37998;DHT22;24079;51.824;4.682;2023-10-31T19:23:06;12.30;99.90
37998;DHT22;24079;51.824;4.682;2023-10-31T19:25:33;12.30;99.90
37998;DHT22;24079;51.824;4.682;2023-10-31T19:27:59;12.30;99.90
37998;DHT22;24079;51.824;4.682;2023-10-31T19:30:27;12.30;99.90
37998;DHT22;24079;51.824;4.682;2023-10-31T19:32:53;12.20;99.90
37998;DHT22;24079;51.824;4.682;2023-10-31T19:35:19;12.30;99.90
37998;DHT22;24079;51.824;4.682;2023-10-31T19:37:49;12.20;99.90
37998;DHT22;24079;51.824;4.682;2023-10-31T19:40:17;12.30;99.90
37998;DHT22;24079;51.824;4.682;2023-10-31T19:42:46;12.30;99.90
37998;DHT22;24079;51.824;4.682;2023-10-31T19:45:13;12.30;99.90
37998;DHT22;24079;51.824;4.682;2023-10-31T19:47:39;12.30;99.90
37998;DHT22;24079;51.824;4.682;2023-10-31T19:50:06;12.30;99.90
37998;DHT22;24079;51.824;4.682;2023-10-31T19:52:32;12.50;99.90
37998;DHT22;24079;51.824;4.682;2023-10-31T19:54:58;12.50;99.90
37998;DHT22;24079;51.824;4.682;2023-10-31T19:57:25;12.50;99.90
37998;DHT22;24079;51.824;4.682;2023-10-31T19:59:51;12.60;99.90
37998;DHT22;24079;51.824;4.682;2023-10-31T20:02:18;12.60;99.90
37998;DHT22;24079;51.824;4.682;2023-10-31T20:04:44;12.60;99.90
37998;DHT22;24079;51.824;4.682;2023-10-31T20:07:10;12.60;99.90
37998;DHT22;24079;51.824;4.682;2023-10-31T20:09:36;12.70;99.90
37998;DHT22;24079;51.824;4.682;2023-10-31T20:12:02;12.70;99.90
37998;DHT22;24079;51.824;4.682;2023-10-31T20:14:29;12.80;99.90
37998;DHT22;24079;51.824;4.682;2023-10-31T20:16:55;12.70;99.90
37998;DHT22;24079;51.824;4.682;2023-10-31T20:19:21;12.70;99.90
37998;DHT22;24079;51.824;4.682;2023-10-31T20:21:50;12.70;99.90
37998;DHT22;24079;51.824;4.682;2023-10-31T20:24:17;12.70;99.90
37998;DHT22;24079;51.824;4.682;2023-10-31T20:26:44;12.70;99.90
37998;DHT22;24079;51.824;4.682;2023-10-31T20:29:11;12.80;99.90
37998;DHT22;24079;51.824;4.682;2023-10-31T20:31:37;12.70;99.90
37998;DHT22;24079;51.824;4.682;2023-10-31T20:34:04;12.80;99.90
37998;DHT22;24079;51.824;4.682;2023-10-31T20:36:30;12.70;99.90
37998;DHT22;24079;51.824;4.682;2023-10-31T20:38:57;12.70;99.90
37998;DHT22;24079;51.824;4.682;2023-10-31T20:41:23;12.70;99.90
37998;DHT22;24079;51.824;4.682;2023-10-31T20:43:49;12.80;99.90
37998;DHT22;24079;51.824;4.682;2023-10-31T20:46:15;12.70;99.90
37998;DHT22;24079;51.824;4.682;2023-10-31T20:48:41;12.80;99.90
37998;DHT22;24079;51.824;4.682;2023-10-31T20:51:07;12.70;99.90